Time;durP1;ratioP1;P1;durP2;ratioP2;P2;SDS_P1;SDS_P2;PMS_P1;PMS_P2;Temp;Humidity;BMP_temperature;BMP_pressure;BME280_temperature;BME280_humidity;BME280_pressure;Samples;Min_cycle;Max_cycle;Signal;HPM_P1;HPM_P2
2023/01/28 00:01:13;;;;;;;34.80;22.10;;;;;;;-2.72;82.98;100191.29;105827;1258;60442;-74
2023/01/28 00:03:40;;;;;;;34.10;20.70;;;;;;;-2.76;83.01;100190.95;105952;1253;61267;-72
2023/01/28 00:06:12;;;;;;;36.70;20.40;;;;;;;-2.79;83.16;100185.70;105847;1253;73475;-73
2023/01/28 00:08:39;;;;;;;32.30;20.00;;;;;;;-2.69;83.04;100181.77;105852;1253;72484;-73
2023/01/28 00:11:07;;;;;;;29.00;18.60;;;;;;;-2.61;82.91;100175.98;105870;1257;71180;-73
2023/01/28 00:13:34;;;;;;;29.70;19.50;;;;;;;-2.62;83.04;100182.98;105857;1252;60422;-74
2023/01/28 00:16:07;;;;;;;33.40;21.10;;;;;;;-2.65;82.98;100184.35;105958;1256;60523;-73
2023/01/28 00:18:35;;;;;;;35.10;20.20;;;;;;;-2.68;83.14;100184.48;105922;1253;72667;-72
2023/01/28 00:21:05;;;;;;;34.60;21.60;;;;;;;-2.72;83.15;100185.20;106040;1254;69534;-75
2023/01/28 00:23:33;;;;;;;33.20;20.30;;;;;;;-2.77;83.02;100187.33;105940;1253;73726;-76
2023/01/28 00:26:01;;;;;;;35.20;20.30;;;;;;;-2.69;82.87;100184.90;105581;1251;61758;-74
2023/01/28 00:28:28;;;;;;;29.00;18.50;;;;;;;-2.63;82.77;100190.15;106094;1253;60450;-75
2023/01/28 00:30:55;;;;;;;34.80;19.90;;;;;;;-2.68;82.81;100193.66;105938;1256;74057;-74
2023/01/28 00:33:23;;;;;;;36.30;21.50;;;;;;;-2.76;83.03;100198.01;105799;1253;69694;-74
2023/01/28 00:35:57;;;;;;;32.50;19.10;;;;;;;-2.81;83.11;100197.04;105832;1256;72547;-69
2023/01/28 00:38:26;;;;;;;36.40;22.80;;;;;;;-2.87;83.22;100197.16;105630;1256;60419;-69
2023/01/28 00:40:52;;;;;;;32.40;19.80;;;;;;;-2.94;83.42;100192.13;105580;1253;60504;-71
2023/01/28 00:43:22;;;;;;;31.70;19.70;;;;;;;-2.88;83.43;100184.92;105697;1253;74524;-71
2023/01/28 00:45:48;;;;;;;34.70;20.40;;;;;;;-2.80;83.53;100183.31;105890;1254;69312;-70
2023/01/28 00:48:16;;;;;;;34.30;20.70;;;;;;;-2.84;83.73;100174.63;105745;1257;73495;-71
2023/01/28 00:50:45;;;;;;;33.00;20.60;;;;;;;-2.85;84.10;100169.88;105656;1252;60909;-70
2023/01/28 00:53:13;;;;;;;36.70;21.30;;;;;;;-2.85;84.26;100173.69;105912;1252;60415;-74
2023/01/28 00:55:40;;;;;;;35.50;21.30;;;;;;;-2.86;84.36;100166.77;105804;1253;73997;-70
2023/01/28 00:58:08;;;;;;;35.20;21.20;;;;;;;-2.88;84.25;100174.67;105620;1253;71271;-71
2023/01/28 01:00:35;;;;;;;28.90;17.80;;;;;;;-2.78;84.02;100181.30;105540;1252;73199;-68
2023/01/28 01:03:01;;;;;;;33.00;19.40;;;;;;;-2.69;83.67;100180.04;105511;1252;60867;-67
2023/01/28 01:05:28;;;;;;;33.60;20.50;;;;;;;-2.74;83.81;100175.24;105554;1256;61006;-68
2023/01/28 01:08:00;;;;;;;30.00;19.20;;;;;;;-2.80;84.11;100175.84;105481;1258;74836;-70
2023/01/28 01:10:27;;;;;;;33.50;19.90;;;;;;;-2.85;84.21;100179.74;105571;1253;71313;-68
2023/01/28 01:12:55;;;;;;;39.20;22.40;;;;;;;-2.90;84.30;100182.58;105548;1257;73553;-71
2023/01/28 01:15:21;;;;;;;34.20;19.30;;;;;;;-2.93;84.25;100177.84;105475;1253;60978;-71
2023/01/28 01:17:49;;;;;;;31.20;20.40;;;;;;;-2.84;84.24;100175.67;105650;1253;60625;-72
2023/01/28 01:20:21;;;;;;;30.60;19.70;;;;;;;-2.76;83.94;100172.73;105603;1259;73263;-72
2023/01/28 01:22:48;;;;;;;37.30;20.90;;;;;;;-2.81;84.09;100167.74;105552;1253;71545;-72
2023/01/28 01:25:16;;;;;;;34.70;20.80;;;;;;;-2.88;84.07;100171.91;105478;1253;72342;-72
2023/01/28 01:27:47;;;;;;;36.90;21.10;;;;;;;-2.94;84.24;100169.27;105653;1254;60536;-71
2023/01/28 01:30:14;;;;;;;35.50;20.70;;;;;;;-2.99;84.23;100169.10;105762;1254;60447;-72
2023/01/28 01:32:41;;;;;;;34.00;20.10;;;;;;;-2.91;84.20;100173.24;105852;1253;73741;-67
2023/01/28 01:35:09;;;;;;;34.80;20.70;;;;;;;-2.82;84.02;100169.39;105674;1253;70561;-66
2023/01/28 01:37:35;;;;;;;33.20;19.90;;;;;;;-2.85;84.13;100166.89;105887;1253;71620;-69
2023/01/28 01:40:03;;;;;;;33.70;19.40;;;;;;;-2.90;84.24;100165.92;105554;1254;60519;-69
2023/01/28 01:42:32;;;;;;;34.40;20.50;;;;;;;-2.94;84.35;100163.17;105606;1258;61569;-71
2023/01/28 01:45:21;;;;;;;34.60;19.50;;;;;;;-2.98;84.61;100166.98;105787;1257;73853;-74
2023/01/28 01:48:15;;;;;;;35.80;19.40;;;;;;;-2.99;84.46;100161.69;105895;1253;70062;-72
2023/01/28 01:50:46;;;;;;;28.90;17.30;;;;;;;-2.86;84.25;100166.61;105830;1256;71646;-72
2023/01/28 01:53:16;;;;;;;31.40;19.70;;;;;;;-2.80;84.23;100164.24;105590;1253;60519;-72
2023/01/28 01:55:45;;;;;;;31.10;19.70;;;;;;;-2.85;84.25;100164.48;105649;1256;60537;-74
2023/01/28 01:58:14;;;;;;;33.90;19.90;;;;;;;-2.91;84.59;100157.85;105906;1253;74635;-72
2023/01/28 02:00:44;;;;;;;31.60;19.60;;;;;;;-2.95;84.63;100160.63;105591;1257;71055;-72
2023/01/28 02:03:10;;;;;;;32.40;20.20;;;;;;;-2.98;84.80;100157.80;105671;1253;71484;-70
2023/01/28 02:05:37;;;;;;;33.80;19.80;;;;;;;-2.97;84.61;100159.34;105862;1253;60485;-72
2023/01/28 02:08:20;;;;;;;28.10;17.90;;;;;;;-2.84;84.33;100159.59;105836;1254;60424;-72
2023/01/28 02:10:55;;;;;;;32.50;19.10;;;;;;;-2.78;84.28;100157.18;105580;1259;74676;-71
2023/01/28 02:13:25;;;;;;;34.70;20.70;;;;;;;-2.83;84.31;100147.06;105882;1253;68819;-72
2023/01/28 02:15:52;;;;;;;32.50;19.50;;;;;;;-2.86;84.53;100150.66;105877;1257;72939;-73
2023/01/28 02:18:19;;;;;;;31.90;19.00;;;;;;;-2.90;84.62;100150.69;105639;1254;60473;-73
2023/01/28 02:21:17;;;;;;;32.90;19.50;;;;;;;-2.96;84.54;100155.46;105836;1254;61660;-70
2023/01/28 02:24:36;;;;;;;35.50;20.50;;;;;;;-2.98;84.69;100153.45;105679;1253;74799;-70
2023/01/28 02:27:21;;;;;;;29.30;18.20;;;;;;;-2.83;84.38;100157.97;105766;1256;69043;-74
2023/01/28 02:30:15;;;;;;;32.20;19.30;;;;;;;-2.84;84.44;100155.26;105819;1257;72863;-72
2023/01/28 02:32:54;;;;;;;34.80;19.30;;;;;;;-2.89;84.67;100147.33;105648;1253;60583;-70
2023/01/28 02:35:32;;;;;;;33.10;20.00;;;;;;;-2.95;84.79;100144.70;105670;1253;60423;-74
2023/01/28 02:38:08;;;;;;;35.50;19.40;;;;;;;-2.98;84.81;100145.84;105853;1253;72872;-73
2023/01/28 02:41:00;;;;;;;30.50;18.50;;;;;;;-2.91;84.55;100147.62;105819;1253;69640;-72
2023/01/28 02:43:36;;;;;;;33.10;20.20;;;;;;;-2.85;84.44;100147.14;105849;1254;73573;-72
2023/01/28 02:48:57;;;;;;;34.30;20.30;;;;;;;-2.90;84.90;100143.75;105834;1253;60601;-72
2023/01/28 02:51:40;;;;;;;31.90;19.60;;;;;;;-2.93;84.78;100146.14;105812;1259;73875;-70
2023/01/28 02:54:26;;;;;;;27.60;16.40;;;;;;;-2.99;84.77;100146.04;105836;1253;70331;-74
2023/01/28 02:57:16;;;;;;;33.20;18.80;;;;;;;-2.98;84.66;100145.83;105778;1253;73817;-71
2023/01/28 02:59:52;;;;;;;32.60;20.00;;;;;;;-2.87;84.49;100144.65;105899;1256;60495;-71
2023/01/28 03:02:40;;;;;;;31.10;18.50;;;;;;;-2.88;84.68;100146.09;105836;1253;61336;-73
2023/01/28 03:05:14;;;;;;;32.20;18.50;;;;;;;-2.93;84.91;100145.96;105905;1256;74615;-69
2023/01/28 03:07:41;;;;;;;31.60;20.00;;;;;;;-2.99;84.91;100142.60;105706;1253;69938;-70
2023/01/28 03:10:10;;;;;;;33.80;20.50;;;;;;;-3.05;84.89;100141.48;105669;1254;72858;-69
2023/01/28 03:38:19;;;;;;;32.20;20.10;;;;;;;-2.92;84.88;100124.77;105727;1253;73621;-70
2023/01/28 03:41:00;;;;;;;31.30;18.70;;;;;;;-2.95;85.08;100130.30;105687;1254;60401;-72
2023/01/28 03:43:27;;;;;;;33.20;20.00;;;;;;;-2.98;84.95;100131.44;105563;1252;62207;-67
2023/01/28 03:45:54;;;;;;;33.40;19.20;;;;;;;-3.01;84.98;100134.17;105339;1253;71849;-69
2023/01/28 03:48:23;;;;;;;31.30;19.80;;;;;;;-2.91;84.77;100139.13;105571;1253;71340;-69
2023/01/28 03:50:50;;;;;;;30.20;19.80;;;;;;;-2.80;84.49;100141.55;105363;1253;73218;-69
2023/01/28 03:53:17;;;;;;;32.60;20.00;;;;;;;-2.82;84.53;100139.56;105575;1253;60467;-67
2023/01/28 03:55:47;;;;;;;33.10;21.00;;;;;;;-2.86;84.77;100143.54;105664;1254;60573;-68
2023/01/28 03:58:13;;;;;;;34.50;20.20;;;;;;;-2.88;84.58;100142.46;105556;1253;71877;-69
2023/01/28 04:00:42;;;;;;;34.50;20.70;;;;;;;-2.92;84.54;100141.96;105773;1256;71664;-66
2023/01/28 04:03:17;;;;;;;32.60;20.40;;;;;;;-2.96;84.67;100142.48;105726;1253;73229;-68
2023/01/28 04:05:57;;;;;;;29.30;17.90;;;;;;;-2.86;84.41;100133.83;105749;1254;60622;-68
2023/01/28 04:08:27;;;;;;;30.50;18.60;;;;;;;-2.79;84.19;100140.44;105856;1256;60530;-65
2023/01/28 04:11:18;;;;;;;34.20;20.00;;;;;;;-2.82;84.21;100142.52;105711;1255;74512;-68
2023/01/28 04:13:46;;;;;;;31.40;19.90;;;;;;;-2.85;84.32;100140.23;105693;1256;70575;-68
2023/01/28 04:16:15;;;;;;;31.90;20.60;;;;;;;-2.87;84.44;100142.94;105707;1260;71318;-66
2023/01/28 04:18:43;;;;;;;31.10;17.70;;;;;;;-2.89;84.34;100144.58;105818;1253;60425;-68
2023/01/28 04:21:10;;;;;;;30.60;18.40;;;;;;;-2.90;84.09;100149.29;105824;1254;60414;-66
2023/01/28 04:23:37;;;;;;;28.80;19.40;;;;;;;-2.81;83.71;100149.90;105808;1253;71465;-67
2023/01/28 04:26:05;;;;;;;31.30;18.70;;;;;;;-2.77;83.55;100148.70;105520;1253;71031;-68
2023/01/28 04:28:31;;;;;;;30.70;19.50;;;;;;;-2.83;83.68;100151.19;105668;1256;73688;-67
2023/01/28 04:30:59;;;;;;;30.50;19.00;;;;;;;-2.87;83.72;100151.40;105608;1253;60606;-67
2023/01/28 04:33:34;;;;;;;33.70;19.80;;;;;;;-2.90;83.65;100156.59;106844;1253;60469;-66
2023/01/28 04:36:20;;;;;;;27.20;15.50;;;;;;;-2.92;83.56;100150.63;107159;1256;72938;-67
2023/01/28 04:39:19;;;;;;;30.80;18.40;;;;;;;-2.89;83.16;100149.59;105463;1257;71519;-67
2023/01/28 04:42:01;;;;;;;27.00;17.80;;;;;;;-2.80;82.87;100146.71;105946;1256;72515;-65
2023/01/28 04:44:46;;;;;;;29.90;20.20;;;;;;;-2.82;83.01;100150.29;105899;1253;60461;-67
2023/01/28 04:47:32;;;;;;;30.90;19.60;;;;;;;-2.85;83.05;100150.79;106152;1253;61100;-69
2023/01/28 04:50:21;;;;;;;33.00;18.30;;;;;;;-2.88;83.16;100155.95;108005;1253;74000;-68
2023/01/28 04:53:15;;;;;;;30.00;19.00;;;;;;;-2.89;83.05;100162.97;108895;1253;70590;-70
2023/01/28 04:55:52;;;;;;;29.30;18.80;;;;;;;-2.89;83.11;100164.50;108854;1252;70548;-69
2023/01/28 04:58:20;;;;;;;28.40;19.30;;;;;;;-2.87;82.98;100165.45;108324;1253;60952;-69
2023/01/28 05:00:57;;;;;;;24.30;17.10;;;;;;;-2.73;82.64;100170.30;108580;1253;59251;-70
2023/01/28 05:03:25;;;;;;;27.60;17.70;;;;;;;-2.60;82.31;100167.62;109152;1251;72639;-69
2023/01/28 05:05:55;;;;;;;25.80;17.30;;;;;;;-2.61;82.32;100173.04;108931;1253;69456;-69
2023/01/28 05:08:34;;;;;;;29.30;18.60;;;;;;;-2.64;82.22;100175.42;108814;1253;72486;-69
2023/01/28 05:11:05;;;;;;;31.10;19.40;;;;;;;-2.66;82.11;100180.23;108871;1253;60316;-69
2023/01/28 05:13:32;;;;;;;30.20;19.10;;;;;;;-2.70;81.96;100180.26;108585;1253;60221;-69
2023/01/28 05:16:00;;;;;;;34.20;19.90;;;;;;;-2.73;82.02;100181.10;108655;1251;75168;-70
2023/01/28 05:18:27;;;;;;;31.50;19.80;;;;;;;-2.74;82.01;100178.18;108932;1254;69252;-69
2023/01/28 05:21:09;;;;;;;31.40;19.10;;;;;;;-2.61;81.74;100173.59;109040;1251;70825;-69
2023/01/28 05:23:40;;;;;;;34.40;22.20;;;;;;;-2.52;81.52;100172.95;108963;1253;60340;-67
2023/01/28 05:26:07;;;;;;;42.90;29.90;;;;;;;-2.52;81.38;100173.85;108159;1252;59557;-68
2023/01/28 05:28:34;;;;;;;39.60;26.80;;;;;;;-2.55;81.47;100165.13;107808;1255;73566;-68
2023/01/28 05:31:05;;;;;;;33.30;22.40;;;;;;;-2.58;81.46;100165.77;106452;1257;70746;-71
2023/01/28 05:33:32;;;;;;;32.20;20.40;;;;;;;-2.61;81.31;100171.83;105796;1253;71775;-70
2023/01/28 05:35:59;;;;;;;27.50;18.00;;;;;;;-2.65;81.15;100172.56;105736;1257;60569;-67
2023/01/28 05:38:27;;;;;;;27.30;16.90;;;;;;;-2.70;80.96;100168.79;105827;1254;60491;-67
2023/01/28 05:40:55;;;;;;;26.40;17.10;;;;;;;-2.64;80.73;100162.11;105725;1256;74549;-70
2023/01/28 05:43:22;;;;;;;28.40;18.10;;;;;;;-2.57;80.49;100165.05;105805;1256;71457;-69
2023/01/28 05:46:05;;;;;;;30.90;17.50;;;;;;;-2.59;80.77;100160.98;105565;1255;72977;-69
2023/01/28 05:48:55;;;;;;;26.00;16.80;;;;;;;-2.61;80.77;100165.23;105499;1257;60512;-69
2023/01/28 05:51:38;;;;;;;26.40;17.10;;;;;;;-2.61;80.97;100169.42;105509;1254;61490;-69
2023/01/28 05:54:10;;;;;;;28.10;17.40;;;;;;;-2.62;80.87;100172.59;105581;1251;73764;-72
2023/01/28 05:56:36;;;;;;;26.50;17.10;;;;;;;-2.65;80.71;100167.19;105744;1256;71295;-69
2023/01/28 05:59:04;;;;;;;25.30;15.30;;;;;;;-2.70;80.56;100168.98;105475;1256;71546;-67
2023/01/28 06:01:31;;;;;;;24.70;15.70;;;;;;;-2.65;80.29;100164.56;105576;1256;62206;-69
2023/01/28 06:03:59;;;;;;;25.70;16.40;;;;;;;-2.58;79.99;100167.52;105684;1254;60453;-69
2023/01/28 06:06:28;;;;;;;32.60;16.10;;;;;;;-2.61;80.17;100171.13;105620;1256;73839;-68
2023/01/28 06:08:57;;;;;;;24.30;15.60;;;;;;;-2.66;80.29;100173.44;105449;1256;71402;-70
2023/01/28 06:11:27;;;;;;;25.00;15.30;;;;;;;-2.72;80.19;100173.42;105695;1257;73455;-68
2023/01/28 06:13:57;;;;;;;25.30;16.30;;;;;;;-2.78;80.27;100171.11;105539;1257;60436;-68
2023/01/28 06:16:43;;;;;;;25.90;17.20;;;;;;;-2.85;80.39;100164.33;105552;1257;60431;-74
2023/01/28 06:19:10;;;;;;;28.70;16.70;;;;;;;-2.89;80.54;100168.48;105650;1256;75042;-71
2023/01/28 06:21:37;;;;;;;25.00;15.50;;;;;;;-2.82;80.38;100167.45;105662;1254;69463;-73
2023/01/28 06:24:04;;;;;;;25.20;16.30;;;;;;;-2.74;80.22;100163.96;105685;1255;73831;-75
2023/01/28 06:26:31;;;;;;;23.70;15.20;;;;;;;-2.75;80.31;100161.79;106029;1256;60478;-70
2023/01/28 06:28:57;;;;;;;24.70;15.10;;;;;;;-2.80;80.28;100165.28;105628;1254;60834;-73
2023/01/28 06:31:24;;;;;;;26.50;16.30;;;;;;;-2.85;80.31;100162.08;105675;1256;71863;-71
2023/01/28 06:33:51;;;;;;;27.50;16.90;;;;;;;-2.91;80.34;100165.98;105693;1251;71489;-75
2023/01/28 06:36:18;;;;;;;29.10;18.10;;;;;;;-2.97;80.47;100167.29;106020;1257;73617;-80
2023/01/28 06:38:45;;;;;;;24.80;15.90;;;;;;;-3.00;80.50;100173.68;106924;1257;60555;-79
2023/01/28 06:41:12;;;;;;;25.10;15.80;;;;;;;-2.91;80.38;100176.91;106237;1256;60389;-78
2023/01/28 06:43:38;;;;;;;21.70;14.90;;;;;;;-2.82;80.17;100179.09;105865;1252;73528;-77
2023/01/28 06:46:05;;;;;;;24.20;16.20;;;;;;;-2.85;80.35;100183.19;106042;1257;71000;-76
2023/01/28 06:48:32;;;;;;;26.40;15.60;;;;;;;-2.90;80.24;100181.35;105912;1255;73638;-75
2023/01/28 06:50:59;;;;;;;28.30;17.00;;;;;;;-2.96;80.45;100180.09;105884;1253;60516;-76
2023/01/28 06:53:25;;;;;;;26.80;17.20;;;;;;;-3.02;80.59;100182.61;106059;1252;60444;-75
2023/01/28 06:55:52;;;;;;;26.00;17.40;;;;;;;-3.04;80.64;100183.92;105959;1256;74535;-72
2023/01/28 06:58:21;;;;;;;29.00;18.30;;;;;;;-3.05;80.88;100183.09;105662;1257;71327;-71
2023/01/28 07:00:48;;;;;;;31.20;17.50;;;;;;;-2.95;80.68;100185.90;105652;1257;71442;-71
2023/01/28 07:03:15;;;;;;;29.00;17.60;;;;;;;-2.83;80.55;100185.36;105379;1254;321350;-72
2023/01/28 07:06:45;;;;;;;25.50;17.40;;;;;;;-2.80;80.65;100181.92;102367;1298;600027;-73
2023/01/28 07:09:13;;;;;;;29.80;18.70;;;;;;;-2.84;80.79;100185.95;104479;1270;59356;-72
2023/01/28 07:11:41;;;;;;;29.70;18.20;;;;;;;-2.87;80.73;100186.92;104684;1272;61627;-73
2023/01/28 07:14:10;;;;;;;32.40;19.10;;;;;;;-2.92;80.73;100190.31;104834;1272;73009;-73
2023/01/28 07:16:38;;;;;;;32.40;19.40;;;;;;;-2.97;80.77;100191.73;104441;1273;70656;-73
2023/01/28 07:19:06;;;;;;;29.50;18.50;;;;;;;-2.99;80.75;100184.19;104476;1271;71971;-72
2023/01/28 07:21:35;;;;;;;28.20;18.50;;;;;;;-2.90;80.57;100188.48;104598;1273;143486;-71
2023/01/28 07:24:04;;;;;;;30.30;18.20;;;;;;;-2.81;80.46;100188.56;104717;1273;59722;-71
2023/01/28 07:26:32;;;;;;;27.40;17.70;;;;;;;-2.82;80.57;100186.70;104846;1270;72479;-71
2023/01/28 07:29:01;;;;;;;31.10;18.10;;;;;;;-2.86;80.58;100184.46;105466;1256;69229;-71
2023/01/28 07:31:30;;;;;;;29.10;17.50;;;;;;;-2.90;80.53;100184.48;105465;1260;73046;-71
2023/01/28 07:33:58;;;;;;;32.00;19.50;;;;;;;-2.94;80.43;100179.84;105532;1260;59629;-72
2023/01/28 07:36:26;;;;;;;30.60;17.70;;;;;;;-3.01;80.28;100175.98;105615;1255;61467;-71
2023/01/28 07:38:55;;;;;;;31.00;18.70;;;;;;;-3.07;80.33;100179.52;105448;1260;74054;-72
2023/01/28 07:41:23;;;;;;;30.50;17.40;;;;;;;-3.00;80.25;100176.95;105329;1260;70787;-75
2023/01/28 07:43:51;;;;;;;29.30;18.60;;;;;;;-2.92;80.06;100169.86;105576;1260;72980;-75
2023/01/28 07:46:19;;;;;;;28.40;18.10;;;;;;;-2.94;80.09;100174.09;105928;1254;60712;-75
2023/01/28 07:48:47;;;;;;;33.80;20.00;;;;;;;-3.01;80.29;100171.62;105499;1260;59499;-75
2023/01/28 07:51:17;;;;;;;32.90;20.30;;;;;;;-3.04;80.28;100179.26;105806;1257;73691;-74
2023/01/28 07:53:45;;;;;;;34.20;21.10;;;;;;;-3.07;80.28;100178.49;105360;1255;71296;-74
2023/01/28 07:56:13;;;;;;;31.50;19.70;;;;;;;-3.10;80.27;100181.06;105709;1269;72588;-73
2023/01/28 07:58:41;;;;;;;35.00;21.20;;;;;;;-3.12;80.38;100189.66;105501;1254;59898;-73
2023/01/28 08:01:09;;;;;;;31.70;18.60;;;;;;;-3.05;80.22;100192.46;105271;1260;61106;-73
2023/01/28 08:03:37;;;;;;;33.60;20.40;;;;;;;-2.94;79.84;100195.59;105125;1260;72997;-74
2023/01/28 08:06:05;;;;;;;32.70;19.10;;;;;;;-2.91;79.87;100201.55;105435;1254;71631;-73
2023/01/28 08:08:35;;;;;;;33.10;19.10;;;;;;;-2.94;79.98;100201.16;105488;1259;73362;-73
2023/01/28 08:11:08;;;;;;;35.20;20.80;;;;;;;-2.97;80.02;100209.73;105507;1254;59895;-75
2023/01/28 08:13:36;;;;;;;35.40;21.50;;;;;;;-2.97;80.01;100205.44;105515;1258;59548;-74
2023/01/28 08:16:05;;;;;;;33.80;20.20;;;;;;;-2.99;79.92;100208.79;105525;1260;73050;-74
2023/01/28 08:18:34;;;;;;;34.30;19.70;;;;;;;-3.02;79.80;100212.93;105996;1258;71582;-73
2023/01/28 08:21:04;;;;;;;37.70;20.10;;;;;;;-3.09;79.49;100212.04;105580;1260;71373;-74
2023/01/28 08:23:33;;;;;;;30.40;18.20;;;;;;;-3.04;79.38;100212.16;105555;1259;60354;-74
2023/01/28 08:26:01;;;;;;;29.80;17.30;;;;;;;-2.96;79.23;100208.86;105674;1254;59705;-73
2023/01/28 08:28:31;;;;;;;32.20;19.30;;;;;;;-3.01;79.13;100205.59;105310;1259;74203;-74
2023/01/28 08:30:59;;;;;;;28.80;18.00;;;;;;;-3.09;79.02;100205.98;105546;1254;69424;-73
2023/01/28 08:33:28;;;;;;;33.10;19.60;;;;;;;-3.14;79.24;100206.02;105508;1260;74154;-72
2023/01/28 08:35:56;;;;;;;27.40;17.50;;;;;;;-3.19;79.12;100202.06;105615;1254;60562;-72
2023/01/28 08:38:24;;;;;;;34.70;20.30;;;;;;;-3.26;79.20;100205.35;105734;1254;59605;-73
2023/01/28 08:40:54;;;;;;;31.30;19.70;;;;;;;-3.31;79.37;100203.87;105618;1263;74201;-73
2023/01/28 08:43:23;;;;;;;33.90;19.40;;;;;;;-3.34;79.36;100203.83;105229;1254;71519;-71
2023/01/28 08:45:51;;;;;;;31.80;19.40;;;;;;;-3.26;79.14;100204.52;105413;1254;73254;-74
2023/01/28 08:48:20;;;;;;;29.00;17.10;;;;;;;-3.20;79.06;100207.51;105503;1260;59710;-74
2023/01/28 08:50:49;;;;;;;27.70;18.00;;;;;;;-3.25;78.89;100206.69;105770;1260;59538;-74
2023/01/28 08:53:18;;;;;;;26.10;16.60;;;;;;;-3.29;79.16;100202.73;105502;1254;73374;-74
2023/01/28 08:55:47;;;;;;;28.60;18.00;;;;;;;-3.32;79.16;100199.39;105498;1254;69111;-74
2023/01/28 08:58:16;;;;;;;28.50;18.00;;;;;;;-3.37;79.02;100195.28;105287;1254;73734;-73
2023/01/28 09:00:45;;;;;;;29.70;17.40;;;;;;;-3.42;79.08;100186.68;105547;1259;59704;-74
2023/01/28 09:03:13;;;;;;;27.90;18.00;;;;;;;-3.41;79.00;100181.77;105348;1260;59727;-73
2023/01/28 09:05:41;;;;;;;26.90;16.70;;;;;;;-3.30;78.92;100175.94;105245;1255;73042;-73
2023/01/28 09:08:12;;;;;;;29.70;19.80;;;;;;;-3.28;79.10;100173.76;105545;1254;71224;-74
2023/01/28 09:10:41;;;;;;;28.80;18.70;;;;;;;-3.28;79.41;100166.14;105466;1257;72657;-76
2023/01/28 09:13:14;;;;;;;32.30;19.50;;;;;;;-3.26;79.42;100164.98;105480;1254;60466;-74
2023/01/28 09:15:42;;;;;;;31.00;19.80;;;;;;;-3.25;79.32;100165.13;105461;1255;59696;-75
2023/01/28 09:18:10;;;;;;;35.70;21.90;;;;;;;-3.28;79.41;100165.42;105443;1259;74262;-75
2023/01/28 09:20:39;;;;;;;33.90;21.90;;;;;;;-3.30;79.41;100167.94;105396;1255;71025;-76
2023/01/28 09:23:07;;;;;;;31.00;20.80;;;;;;;-3.32;79.37;100164.07;105824;1254;72794;-76
2023/01/28 09:25:35;;;;;;;28.50;18.30;;;;;;;-3.24;79.16;100159.68;105582;1254;60675;-75
2023/01/28 09:28:04;;;;;;;27.70;17.70;;;;;;;-3.12;78.90;100160.55;105552;1257;60089;-75
2023/01/28 09:30:32;;;;;;;32.30;19.40;;;;;;;-3.12;78.89;100162.63;105879;1254;72989;-76
2023/01/28 09:33:04;;;;;;;28.10;19.20;;;;;;;-3.18;78.98;100160.83;105738;1254;69936;-74
2023/01/28 09:35:33;;;;;;;34.50;21.00;;;;;;;-3.21;78.99;100163.19;105622;1254;73517;-76
2023/01/28 09:38:01;;;;;;;32.00;20.80;;;;;;;-3.24;79.06;100159.18;105340;1255;60479;-76
2023/01/28 09:40:39;;;;;;;29.70;19.80;;;;;;;-3.26;79.20;100156.85;105586;1260;61334;-74
2023/01/28 09:43:13;;;;;;;32.90;20.40;;;;;;;-3.29;79.20;100152.98;105646;1260;74297;-74
2023/01/28 09:45:43;;;;;;;33.60;21.50;;;;;;;-3.31;79.24;100151.17;105396;1255;68830;-75
2023/01/28 09:48:20;;;;;;;36.20;21.20;;;;;;;-3.18;79.16;100150.61;105541;1259;72909;-76
2023/01/28 09:50:50;;;;;;;33.40;19.60;;;;;;;-3.06;79.09;100142.39;105634;1260;59727;-76
2023/01/28 09:53:20;;;;;;;35.70;21.20;;;;;;;-3.08;79.18;100138.54;105645;1259;61461;-76
2023/01/28 09:56:13;;;;;;;30.30;20.10;;;;;;;-3.13;79.24;100135.49;105516;1260;72490;-75
2023/01/28 09:58:42;;;;;;;31.50;20.40;;;;;;;-3.16;79.25;100135.24;105788;1259;70695;-75
2023/01/28 10:01:19;;;;;;;33.30;19.60;;;;;;;-3.18;79.17;100131.34;105387;1254;72818;-77
2023/01/28 10:04:16;;;;;;;27.40;18.20;;;;;;;-3.24;78.99;100125.56;105590;1259;59861;-74
2023/01/28 10:07:10;;;;;;;29.90;18.60;;;;;;;-3.29;79.01;100121.84;105582;1260;61279;-74
2023/01/28 10:10:00;;;;;;;31.70;16.80;;;;;;;-3.17;79.03;100122.98;105678;1254;73860;-75
2023/01/28 10:13:04;;;;;;;28.70;17.70;;;;;;;-3.12;79.03;100118.07;105649;1254;71606;-74
2023/01/28 10:15:47;;;;;;;30.30;19.50;;;;;;;-3.09;79.08;100112.05;105215;1260;73663;-72
2023/01/28 10:18:16;;;;;;;32.50;19.30;;;;;;;-3.09;78.95;100110.31;105553;1254;60782;-73
2023/01/28 10:20:53;;;;;;;27.60;18.60;;;;;;;-3.09;78.64;100110.30;105558;1257;61051;-74
2023/01/28 10:24:10;;;;;;;31.10;19.60;;;;;;;-3.09;78.41;100114.16;105436;1254;72713;-74
2023/01/28 10:26:39;;;;;;;25.30;17.40;;;;;;;-3.09;78.26;100107.73;105084;1262;70309;-73
2023/01/28 10:29:12;;;;;;;25.70;18.10;;;;;;;-2.94;78.08;100107.87;105099;1270;73374;-72
2023/01/28 10:31:51;;;;;;;27.70;18.30;;;;;;;-2.85;78.15;100103.10;105280;1270;59864;-73
2023/01/28 10:34:20;;;;;;;33.30;19.70;;;;;;;-2.82;78.11;100097.27;105756;1260;59532;-72
2023/01/28 10:36:48;;;;;;;27.40;18.20;;;;;;;-2.79;77.88;100100.77;105701;1254;74032;-74
2023/01/28 10:39:21;;;;;;;25.50;16.70;;;;;;;-2.76;77.44;100099.39;105472;1257;71540;-73
2023/01/28 10:41:50;;;;;;;24.80;17.40;;;;;;;-2.71;76.96;100097.09;105788;1263;71624;-74
2023/01/28 10:44:33;;;;;;;29.10;18.20;;;;;;;-2.66;76.61;100094.21;105725;1254;60316;-72
2023/01/28 10:47:10;;;;;;;24.60;17.00;;;;;;;-2.60;76.30;100085.94;108703;1254;58808;-73
2023/01/28 10:49:46;;;;;;;27.70;17.80;;;;;;;-2.49;76.15;100080.75;108857;1254;72860;-73
2023/01/28 10:52:14;;;;;;;28.70;17.50;;;;;;;-2.41;75.74;100078.05;109179;1254;71368;-74
2023/01/28 10:54:42;;;;;;;26.50;16.20;;;;;;;-2.19;75.31;100078.16;109176;1254;72329;-74
2023/01/28 10:57:12;;;;;;;28.90;18.50;;;;;;;-1.94;74.82;100076.51;109212;1254;58285;-75
2023/01/28 10:59:41;;;;;;;26.70;17.70;;;;;;;-1.80;74.69;100069.55;108985;1254;59709;-72
2023/01/28 11:02:28;;;;;;;24.70;17.30;;;;;;;-1.66;74.49;100070.00;108849;1254;72803;-70
2023/01/28 11:05:19;;;;;;;29.40;17.30;;;;;;;-1.50;73.90;100072.81;109034;1254;70066;-71
2023/01/28 11:08:12;;;;;;;25.40;17.10;;;;;;;-1.40;73.02;100070.69;109027;1254;70166;-70
2023/01/28 11:10:41;;;;;;;30.20;18.50;;;;;;;-1.37;72.35;100069.50;108931;1254;57977;-72
2023/01/28 11:13:18;;;;;;;30.50;19.10;;;;;;;-1.34;72.30;100067.79;108700;1254;60295;-70
2023/01/28 11:16:18;;;;;;;24.70;16.30;;;;;;;-1.25;72.14;100061.52;108770;1254;73028;-72
2023/01/28 11:18:51;;;;;;;30.30;18.10;;;;;;;-0.96;71.26;100057.87;108868;1254;70578;-69
2023/01/28 11:21:24;;;;;;;29.90;18.50;;;;;;;-0.54;71.21;100055.23;108663;1254;71601;-67
2023/01/28 11:23:58;;;;;;;24.50;16.80;;;;;;;-0.14;70.44;100058.62;108141;1254;60418;-69
2023/01/28 11:26:29;;;;;;;31.30;20.10;;;;;;;0.21;69.26;100050.27;106926;1254;61340;-69
2023/01/28 11:28:57;;;;;;;28.20;19.00;;;;;;;0.45;68.56;100049.62;105500;1257;72574;-71
2023/01/28 11:31:25;;;;;;;27.40;18.40;;;;;;;0.60;66.70;100044.67;105910;1254;71673;-70
2023/01/28 11:34:00;;;;;;;24.00;16.90;;;;;;;0.82;67.08;100041.23;105431;1254;73585;-71
2023/01/28 11:36:30;;;;;;;25.10;17.90;;;;;;;1.21;66.57;100036.05;105566;1254;60545;-72
2023/01/28 11:39:00;;;;;;;28.60;19.10;;;;;;;1.55;65.84;100034.89;105577;1254;61056;-72
2023/01/28 11:41:34;;;;;;;29.70;20.20;;;;;;;1.72;65.12;100037.53;105343;1254;71365;-73
2023/01/28 11:44:28;;;;;;;30.70;19.70;;;;;;;1.98;64.67;100032.68;105437;1254;70502;-70
2023/01/28 11:47:16;;;;;;;28.60;19.70;;;;;;;2.29;63.96;100035.73;105352;1260;73901;-73
2023/01/28 11:50:02;;;;;;;29.50;20.00;;;;;;;2.57;63.46;100031.10;105529;1254;60512;-74
2023/01/28 11:53:20;;;;;;;28.60;21.40;;;;;;;2.81;62.72;100028.16;105359;1254;61542;-73
2023/01/28 11:55:51;;;;;;;26.80;19.70;;;;;;;3.04;61.50;100028.63;104958;1257;74071;-72